Cottonwood Falls, KS (66845)

12:27 PM CST on December 08, 2016 (GMT -0600)
Emporia Municipal | | Change Station

Elev 1207 ft 38.33 °N, 96.19 °W | Updated 34 minutes ago

Clear
Clear
22 °F
Feels Like 9 °F
N
15
Wind Variable Wind from NNW

Today
High -- | Low -- °F
--% Chance of Precip.
Yesterday
High -- | Low -- °F
Precip. -- in
Pressure 30.72 in
Visibility 10.0 miles
Clouds Clear
Windchill 9 °F
Dew Point 11 °F
Humidity 63%
Rainfall 0.00 in
Snow Depth Not available.
7:31 AM 5:05 PM
Waxing Gibbous, 65% visible
METAR KEMP 081753Z AUTO 33013KT 10SM CLR M06/M12 A3065 RMK AO2 SLP402 T10561117 11056 21106 50002
Pressure 30.72 in
Visibility 10.0 miles
Clouds Clear
Windchill 9 °F
Dew Point 11 °F
Humidity 63%
Rainfall 0.00 in
Snow Depth Not available.
7:31 AM 5:05 PM
Waxing Gibbous, 65% visible
METAR KEMP 081753Z AUTO 33013KT 10SM CLR M06/M12 A3065 RMK AO2 SLP402 T10561117 11056 21106 50002

10-Day Weather Forecast

Almanac

Astronomy

Dec. 08, 2016 Rise Set
Actual Time
Civil Twilight
Nautical Twilight
Astronomical Twilight
Moon
Length of Visible Light
Length of Day
Tomorrow will be .
, % of the Moon is Illuminated

Today's Extremes

State Highs State Lows

Community

WunderPhotos

Upload Photos

1,956,277 photos uploaded!

WunderBlog® & News

Nearby

Air Quality

  Air Quality AQ Index Pollutant
Not available.

Snow Depth

Station Depth Elevation

Earthquake Activity

City Distance Mag. Time & Date
Minimum magnitude displayed is 2.5.

Coastal Water Temperatures

Place Temperature

Stations

Nearby Weather Stations

Station Location Temp. Windchill Dew Point Humidity Wind Precip. Elev Updated Type
                   

Watches & Warnings

There are currently no watches in effect.